Time;durP1;ratioP1;P1;durP2;ratioP2;P2;SDS_P1;SDS_P2;PMS_P1;PMS_P2;Temp;Humidity;BMP_temperature;BMP_pressure;BME280_temperature;BME280_humidity;BME280_pressure;Samples;Min_cycle;Max_cycle;Signal;HPM_P1;HPM_P2
2022/09/12 00:01:34;;;;;;;1.55;1.00;;;;;;;15.78;81.42;98645.48;1752549;80;20986;-79
2022/09/12 00:04:01;;;;;;;2.87;1.75;;;;;;;15.78;81.85;98645.01;1754801;79;21010;-80
2022/09/12 00:06:33;;;;;;;2.35;1.35;;;;;;;15.83;80.91;98639.52;1742857;79;20991;-78
2022/09/12 00:09:04;;;;;;;5.17;1.40;;;;;;;15.88;80.17;98643.58;1743112;79;20982;-81
2022/09/12 00:11:30;;;;;;;6.20;1.47;;;;;;;15.87;80.22;98639.25;1749281;80;20990;-79
2022/09/12 00:14:00;;;;;;;2.40;1.30;;;;;;;15.88;80.17;98637.50;1774161;79;20942;-80
2022/09/12 00:16:30;;;;;;;4.20;1.30;;;;;;;15.92;79.31;98640.34;1774075;79;20994;-80
2022/09/12 00:18:57;;;;;;;1.32;1.05;;;;;;;15.89;79.25;98636.55;1744375;79;20998;-79
2022/09/12 00:21:24;;;;;;;2.12;1.02;;;;;;;15.88;79.32;98639.65;1761068;79;20982;-78
2022/09/12 00:23:51;;;;;;;2.87;1.10;;;;;;;15.89;79.29;98648.35;1752125;79;21001;-79
2022/09/12 00:26:20;;;;;;;3.60;1.32;;;;;;;15.91;78.64;98643.87;1758667;79;21066;-79
2022/09/12 00:28:48;;;;;;;2.15;1.05;;;;;;;15.93;79.14;98643.32;1767856;79;21033;-79
2022/09/12 00:31:19;;;;;;;4.40;1.30;;;;;;;15.91;79.33;98642.09;1772782;79;20962;-78
2022/09/12 00:33:46;;;;;;;4.10;1.40;;;;;;;15.95;78.98;98642.77;1736104;80;21001;-81
2022/09/12 00:36:19;;;;;;;6.65;1.50;;;;;;;15.96;78.64;98637.92;1729277;80;21074;-80
2022/09/12 00:38:47;;;;;;;3.77;1.40;;;;;;;15.96;79.01;98638.40;1729881;81;21033;-78
2022/09/12 00:41:22;;;;;;;4.12;1.70;;;;;;;15.95;78.96;98644.55;1749041;80;21505;-81
2022/09/12 00:43:53;;;;;;;2.40;1.25;;;;;;;15.93;79.21;98643.80;1750385;80;20982;-78
2022/09/12 00:46:40;;;;;;;2.95;1.42;;;;;;;15.92;79.35;98648.20;1749231;80;21032;-80
2022/09/12 00:49:27;;;;;;;5.83;1.82;;;;;;;15.95;78.78;98645.87;1731669;80;21021;-78
2022/09/12 00:52:10;;;;;;;2.52;1.20;;;;;;;15.91;79.09;98651.27;1759413;80;20946;-79
2022/09/12 00:54:51;;;;;;;5.15;1.30;;;;;;;15.90;79.41;98652.68;1781601;80;20951;-79
2022/09/12 00:57:21;;;;;;;2.40;1.45;;;;;;;15.91;79.34;98639.47;1739773;81;20989;-79
2022/09/12 00:59:56;;;;;;;2.87;1.42;;;;;;;15.93;79.24;98636.77;1759086;80;20974;-79
2022/09/12 01:02:23;;;;;;;6.72;1.47;;;;;;;15.92;79.31;98633.78;1760064;81;20986;-80
2022/09/12 01:04:51;;;;;;;6.03;1.67;;;;;;;15.93;78.77;98637.24;1760790;81;21038;-79
2022/09/12 01:07:19;;;;;;;3.77;1.62;;;;;;;15.91;78.64;98633.38;1760526;81;21589;-81
2022/09/12 01:09:46;;;;;;;4.17;1.40;;;;;;;15.85;79.44;98629.79;1739329;80;21458;-80
2022/09/12 01:12:14;;;;;;;2.87;1.50;;;;;;;15.83;78.84;98631.64;1759832;81;21044;-79
2022/09/12 01:14:41;;;;;;;3.83;1.60;;;;;;;15.81;78.40;98633.50;1759577;81;20935;-79
2022/09/12 01:17:14;;;;;;;4.55;1.70;;;;;;;15.82;78.44;98633.91;1731825;80;20990;-79
2022/09/12 01:20:08;;;;;;;4.30;2.00;;;;;;;15.78;78.75;98627.97;1730082;80;20997;-82
2022/09/12 01:22:55;;;;;;;3.00;1.50;;;;;;;15.77;79.00;98629.36;1760326;81;20954;-79
2022/09/12 01:25:42;;;;;;;7.40;1.42;;;;;;;15.68;80.13;98634.61;1735542;80;21037;-78
2022/09/12 01:28:26;;;;;;;3.50;1.60;;;;;;;15.62;80.33;98627.91;1731728;79;21021;-79
2022/09/12 01:31:13;;;;;;;3.70;1.40;;;;;;;15.59;80.54;98626.75;1749198;77;21016;-79
2022/09/12 01:34:17;;;;;;;4.10;1.70;;;;;;;15.56;80.40;98626.94;1746097;79;20996;-79
2022/09/12 01:37:04;;;;;;;3.00;1.57;;;;;;;15.53;80.55;98622.31;1748963;80;21060;-79
2022/09/12 01:39:59;;;;;;;4.00;1.80;;;;;;;15.53;80.59;98626.24;1752537;80;21052;-80
2022/09/12 01:42:53;;;;;;;8.10;1.62;;;;;;;15.47;80.87;98619.55;1740518;80;21028;-78
2022/09/12 01:45:26;;;;;;;4.28;1.60;;;;;;;15.46;81.28;98626.56;1766309;80;21043;-78
2022/09/12 01:48:04;;;;;;;4.27;1.30;;;;;;;15.44;81.01;98630.20;1767215;80;20954;-78
2022/09/12 01:50:39;;;;;;;4.70;1.50;;;;;;;15.47;80.86;98634.80;1766170;80;21367;-79
2022/09/12 01:53:29;;;;;;;3.87;1.37;;;;;;;15.44;80.79;98624.50;1736705;80;21004;-79
2022/09/12 01:56:19;;;;;;;3.60;1.52;;;;;;;15.41;81.05;98623.33;1736627;80;21000;-79
2022/09/12 01:59:12;;;;;;;7.60;1.70;;;;;;;15.39;81.19;98625.66;1736669;80;21092;-79
2022/09/12 02:01:47;;;;;;;3.92;1.50;;;;;;;15.39;81.39;98624.34;1740784;80;21056;-80
2022/09/12 02:04:31;;;;;;;5.97;1.40;;;;;;;15.43;80.87;98630.64;1757601;81;20993;-81
2022/09/12 02:07:03;;;;;;;4.45;1.47;;;;;;;15.41;81.23;98615.94;1746220;81;21047;-80
2022/09/12 02:09:34;;;;;;;3.70;1.52;;;;;;;15.44;81.59;98613.17;1767105;80;20978;-80
2022/09/12 02:12:05;;;;;;;2.85;1.50;;;;;;;15.47;80.88;98614.31;1753930;80;21517;-79
2022/09/12 02:14:37;;;;;;;2.70;1.45;;;;;;;15.45;81.15;98614.38;1753260;80;20966;-80
2022/09/12 02:17:17;;;;;;;7.47;1.92;;;;;;;15.45;81.80;98615.69;1766597;80;21525;-79
2022/09/12 02:19:50;;;;;;;3.10;1.45;;;;;;;15.46;81.09;98608.23;1748792;80;21064;-83
2022/09/12 02:22:20;;;;;;;4.83;1.62;;;;;;;15.44;80.62;98610.56;1755445;80;21016;-79
2022/09/12 02:24:52;;;;;;;3.17;1.45;;;;;;;15.39;81.47;98612.56;1736647;80;21059;-79
2022/09/12 02:27:36;;;;;;;2.87;1.77;;;;;;;15.41;80.11;98614.63;1721761;81;21053;-79
2022/09/12 02:30:06;;;;;;;2.72;1.37;;;;;;;15.38;81.97;98616.96;1747712;80;20996;-80
2022/09/12 02:32:50;;;;;;;4.60;1.70;;;;;;;15.38;81.04;98619.58;1766958;80;21545;-79
2022/09/12 02:35:48;;;;;;;6.08;1.60;;;;;;;15.35;81.53;98613.17;1773584;79;20981;-79
2022/09/12 02:38:33;;;;;;;6.95;1.60;;;;;;;15.36;81.11;98608.77;1758894;80;20970;-79
2022/09/12 02:40:59;;;;;;;3.55;1.40;;;;;;;15.36;81.28;98614.89;1752187;79;20974;-78
2022/09/12 02:43:26;;;;;;;7.40;2.10;;;;;;;15.36;81.50;98612.27;1773686;81;20989;-79
2022/09/12 02:45:53;;;;;;;11.12;3.30;;;;;;;15.34;81.33;98621.98;1773581;79;20990;-79
2022/09/12 02:48:27;;;;;;;5.12;2.00;;;;;;;15.37;81.30;98622.27;1759501;79;21015;-79
2022/09/12 02:50:54;;;;;;;4.33;1.75;;;;;;;15.36;81.21;98621.44;1764904;79;21030;-80
2022/09/12 02:53:21;;;;;;;3.17;1.55;;;;;;;15.39;81.04;98618.64;1743178;79;20995;-79
2022/09/12 02:55:48;;;;;;;5.37;1.30;;;;;;;15.38;81.09;98618.70;1775005;79;20987;-79
2022/09/12 02:58:19;;;;;;;6.58;2.20;;;;;;;15.37;81.45;98620.49;1763377;79;21637;-79
2022/09/12 03:01:00;;;;;;;3.17;1.10;;;;;;;15.39;81.39;98618.64;1743191;79;21486;-79
2022/09/12 03:03:53;;;;;;;4.03;1.40;;;;;;;15.38;81.06;98622.64;1754771;81;21496;-79
2022/09/12 03:06:54;;;;;;;2.90;1.50;;;;;;;15.36;81.01;98621.87;1768833;79;21011;-80
2022/09/12 03:09:35;;;;;;;9.30;2.10;;;;;;;15.34;81.19;98614.13;1743354;80;21006;-80
2022/09/12 03:12:27;;;;;;;5.67;1.55;;;;;;;15.34;81.81;98621.11;1766270;79;21496;-79
2022/09/12 03:15:16;;;;;;;7.65;1.60;;;;;;;15.36;81.30;98623.18;1743188;79;21075;-79
2022/09/12 03:18:18;;;;;;;9.15;2.00;;;;;;;15.35;81.38;98618.89;1749918;79;21052;-80
2022/09/12 03:20:58;;;;;;;8.13;1.50;;;;;;;15.31;81.35;98623.43;1761354;81;21018;-80
2022/09/12 03:23:42;;;;;;;9.80;2.40;;;;;;;15.29;81.43;98626.12;1769499;79;20962;-80
2022/09/12 03:26:14;;;;;;;5.20;1.70;;;;;;;15.30;81.17;98632.23;1760543;81;21497;-79
2022/09/12 03:28:42;;;;;;;3.50;1.50;;;;;;;15.22;81.75;98633.06;1743039;79;21058;-79
2022/09/12 03:31:17;;;;;;;2.12;1.40;;;;;;;15.17;82.00;98634.62;1743044;79;21018;-80
2022/09/12 03:33:45;;;;;;;2.92;1.47;;;;;;;15.19;80.78;98635.38;1761317;81;21043;-78
2022/09/12 03:36:21;;;;;;;5.40;1.42;;;;;;;15.16;81.56;98642.55;1722878;82;20974;-79
2022/09/12 03:38:48;;;;;;;3.55;1.77;;;;;;;15.14;81.73;98642.64;1722893;82;21501;-79
2022/09/12 03:41:15;;;;;;;3.58;1.60;;;;;;;15.13;82.21;98637.01;1732938;80;21036;-79
2022/09/12 03:43:41;;;;;;;4.40;1.50;;;;;;;15.15;81.66;98639.55;1744277;82;21002;-78
2022/09/12 03:46:08;;;;;;;3.87;1.40;;;;;;;15.17;81.88;98646.40;1732767;82;21543;-79
2022/09/12 03:48:35;;;;;;;5.25;1.40;;;;;;;15.18;81.57;98645.49;1733186;83;21023;-79
2022/09/12 03:51:07;;;;;;;5.45;1.80;;;;;;;15.19;81.41;98645.86;1726186;82;21000;-79
2022/09/12 03:53:35;;;;;;;12.23;2.25;;;;;;;15.22;81.01;98647.02;1733626;82;20991;-79
2022/09/12 03:56:08;;;;;;;3.02;1.47;;;;;;;15.24;81.18;98645.61;1712744;83;21003;-79
2022/09/12 03:58:36;;;;;;;;;;;;;;;15.24;81.16;98642.55;1736777;82;21019;-79
2022/09/12 04:01:13;;;;;;;4.75;1.60;;;;;;;15.22;81.47;98644.41;1730634;82;20442;-80
2022/09/12 04:03:42;;;;;;;2.77;1.52;;;;;;;15.19;81.09;98646.33;1718298;82;21015;-79
2022/09/12 04:06:11;;;;;;;7.90;1.67;;;;;;;15.18;81.66;98644.18;1711094;82;20991;-79
2022/09/12 04:08:38;;;;;;;7.37;1.87;;;;;;;15.13;81.93;98646.17;1714917;82;21008;-80
2022/09/12 04:11:08;;;;;;;6.78;2.00;;;;;;;15.10;82.12;98639.33;1738031;82;20991;-82
2022/09/12 04:13:36;;;;;;;3.98;1.62;;;;;;;15.11;81.77;98636.24;1708311;83;21007;-80
2022/09/12 04:16:04;;;;;;;3.77;2.00;;;;;;;15.02;81.70;98641.93;1736853;82;21006;-82
2022/09/12 04:18:31;;;;;;;3.12;1.70;;;;;;;15.00;82.54;98639.86;1752489;82;20998;-82
2022/09/12 04:21:00;;;;;;;8.93;1.87;;;;;;;14.94;82.47;98637.11;1752732;82;21534;-79
2022/09/12 04:23:26;;;;;;;3.02;1.57;;;;;;;14.91;82.12;98638.09;1752687;82;21044;-79
2022/09/12 04:26:00;;;;;;;6.10;2.37;;;;;;;14.88;82.50;98643.93;1754302;82;20991;-79
2022/09/12 04:28:28;;;;;;;3.63;1.90;;;;;;;14.75;83.72;98641.56;1754554;82;21062;-79
2022/09/12 04:30:56;;;;;;;4.30;2.00;;;;;;;14.71;83.50;98648.23;1761766;80;21000;-80
2022/09/12 04:33:23;;;;;;;14.78;2.15;;;;;;;14.66;83.56;98643.70;1761818;80;21047;-79
2022/09/12 04:35:49;;;;;;;4.37;1.80;;;;;;;14.61;84.40;98652.70;1749994;80;21016;-79
2022/09/12 04:38:16;;;;;;;5.62;2.00;;;;;;;14.61;83.41;98651.39;1750004;80;20991;-79
2022/09/12 04:40:42;;;;;;;4.28;2.10;;;;;;;14.62;83.73;98657.86;1739792;80;21471;-80
2022/09/12 04:43:09;;;;;;;10.00;3.95;;;;;;;14.64;83.46;98661.69;1766391;81;20954;-80
2022/09/12 04:45:36;;;;;;;4.08;2.05;;;;;;;14.62;84.08;98662.23;1744859;80;21046;-80
2022/09/12 04:48:02;;;;;;;5.92;1.70;;;;;;;14.64;83.78;98673.46;1765922;80;20962;-80
2022/09/12 04:50:31;;;;;;;5.60;2.00;;;;;;;14.64;83.83;98680.88;1746669;80;21007;-79
2022/09/12 04:52:57;;;;;;;2.92;1.80;;;;;;;14.66;83.68;98680.34;1735883;80;21026;-79
2022/09/12 04:55:25;;;;;;;6.35;2.00;;;;;;;14.64;84.05;98684.80;1753323;81;20958;-80
2022/09/12 04:57:51;;;;;;;3.33;1.82;;;;;;;14.70;83.44;98686.24;1766366;81;20990;-79
2022/09/12 05:00:19;;;;;;;8.08;2.20;;;;;;;14.67;84.00;98692.95;1751189;80;21023;-79
2022/09/12 05:02:46;;;;;;;4.45;1.80;;;;;;;14.70;84.17;98696.70;1735595;80;21043;-80
2022/09/12 05:05:12;;;;;;;4.50;1.82;;;;;;;14.72;83.70;98702.72;1735741;80;21007;-79
2022/09/12 05:07:39;;;;;;;4.45;2.05;;;;;;;14.71;84.21;98699.73;1757282;80;21035;-80
2022/09/12 05:10:08;;;;;;;6.58;1.90;;;;;;;14.69;84.71;98697.65;1756400;80;21095;-79
2022/09/12 05:12:35;;;;;;;6.25;1.67;;;;;;;14.67;84.32;98702.11;1749187;80;21439;-80
2022/09/12 05:15:03;;;;;;;5.40;2.70;;;;;;;14.67;84.94;98692.95;1767713;80;20970;-79
2022/09/12 05:17:30;;;;;;;5.67;2.08;;;;;;;14.70;84.57;98701.94;1803769;79;21012;-79
2022/09/12 05:19:57;;;;;;;5.65;1.87;;;;;;;14.73;84.72;98703.12;1783667;79;21450;-80
2022/09/12 05:22:24;;;;;;;5.03;2.08;;;;;;;14.76;84.21;98701.64;1783422;79;21377;-79
2022/09/12 05:24:51;;;;;;;5.40;1.98;;;;;;;14.80;84.23;98700.60;1802370;79;20973;-80
2022/09/12 05:27:17;;;;;;;7.58;2.42;;;;;;;14.85;83.96;98699.90;1809265;79;21096;-80
2022/09/12 05:29:44;;;;;;;5.22;2.00;;;;;;;14.88;83.60;98699.77;1783434;80;21476;-79
2022/09/12 05:32:11;;;;;;;5.72;1.80;;;;;;;14.91;83.51;98702.69;1783532;79;20981;-80
2022/09/12 05:34:39;;;;;;;3.40;1.75;;;;;;;14.93;83.62;98702.61;1780807;79;21014;-79
2022/09/12 05:37:06;;;;;;;5.90;1.80;;;;;;;14.87;84.45;98710.30;1774098;80;21475;-79
2022/09/12 05:39:33;;;;;;;4.05;1.70;;;;;;;14.88;83.98;98712.84;1760835;80;20969;-78
2022/09/12 05:41:59;;;;;;;4.53;1.70;;;;;;;14.91;83.82;98717.91;1755926;80;21584;-80
2022/09/12 05:44:27;;;;;;;6.75;1.80;;;;;;;14.98;83.72;98723.72;1759767;80;21020;-82
2022/09/12 05:46:54;;;;;;;6.15;1.90;;;;;;;15.07;83.60;98736.80;1771500;79;21039;-80
2022/09/12 05:49:20;;;;;;;4.72;1.82;;;;;;;15.17;83.48;98730.66;1749997;80;21480;-79
2022/09/12 05:51:47;;;;;;;2.87;1.30;;;;;;;15.28;83.34;98732.29;1765992;80;20995;-80
2022/09/12 05:54:18;;;;;;;2.70;1.52;;;;;;;15.39;82.71;98730.42;1775360;80;21037;-86
2022/09/12 05:56:45;;;;;;;4.87;2.12;;;;;;;15.40;82.54;98732.11;1759523;80;21005;-89
2022/09/12 05:59:18;;;;;;;3.70;1.75;;;;;;;15.37;82.26;98730.97;1760817;80;20998;-82
2022/09/12 06:01:46;;;;;;;4.12;2.02;;;;;;;15.40;82.33;98724.25;1768105;80;21010;-82
2022/09/12 06:04:13;;;;;;;6.20;2.10;;;;;;;15.44;82.02;98724.03;1790630;79;20992;-84
2022/09/12 06:06:43;;;;;;;5.12;2.00;;;;;;;15.50;81.51;98725.50;1764931;79;21577;-83
2022/09/12 06:09:12;;;;;;;5.33;2.70;;;;;;;15.55;81.54;98729.19;1800441;77;21009;-83
2022/09/12 06:11:40;;;;;;;6.08;2.87;;;;;;;15.59;80.99;98726.79;1779997;79;21020;-83
2022/09/12 06:14:09;;;;;;;9.38;3.80;;;;;;;15.59;80.97;98726.79;1778140;79;21022;-84
2022/09/12 06:16:37;;;;;;;5.78;2.40;;;;;;;15.62;81.02;98724.86;1771943;79;20983;-82
2022/09/12 06:19:09;;;;;;;4.33;2.40;;;;;;;15.63;80.78;98725.23;1772666;80;21001;-83
2022/09/12 06:21:36;;;;;;;4.97;2.02;;;;;;;15.65;80.47;98727.31;1779678;80;21000;-82
2022/09/12 06:24:03;;;;;;;5.50;1.95;;;;;;;15.69;80.18;98730.63;1752437;80;20999;-84
2022/09/12 06:26:30;;;;;;;8.43;2.08;;;;;;;15.69;80.24;98728.00;1742692;80;21007;-79
2022/09/12 06:28:59;;;;;;;5.75;2.40;;;;;;;15.73;80.50;98731.35;1768194;79;21405;-81
2022/09/12 06:31:30;;;;;;;4.97;2.10;;;;;;;15.77;80.64;98733.72;1771658;79;20979;-80
2022/09/12 06:34:04;;;;;;;4.28;1.90;;;;;;;15.82;80.47;98729.09;1774192;79;21017;-82
2022/09/12 06:36:35;;;;;;;3.95;2.17;;;;;;;15.89;80.49;98731.77;1783044;79;21048;-80
2022/09/12 06:39:12;;;;;;;4.60;2.52;;;;;;;15.93;80.45;98732.92;1784150;79;20968;-79
2022/09/12 06:41:39;;;;;;;6.40;2.70;;;;;;;15.94;80.54;98732.85;1778861;80;21005;-81
2022/09/12 06:44:06;;;;;;;3.85;2.15;;;;;;;16.00;80.45;98729.91;1777218;79;20946;-80
2022/09/12 06:46:33;;;;;;;5.45;2.33;;;;;;;16.07;80.43;98734.34;1757447;81;21027;-81
2022/09/12 06:49:01;;;;;;;9.38;2.02;;;;;;;16.15;80.44;98732.62;1763418;81;21012;-81
2022/09/12 06:51:28;;;;;;;4.10;2.08;;;;;;;16.22;80.41;98736.63;1743863;80;20986;-82
2022/09/12 06:53:56;;;;;;;8.35;2.02;;;;;;;16.30;80.18;98743.61;1745100;77;21019;-83
2022/09/12 06:56:26;;;;;;;5.12;2.00;;;;;;;16.36;80.04;98748.53;1757275;80;20998;-80
2022/09/12 06:58:56;;;;;;;5.87;2.15;;;;;;;16.42;79.79;98754.75;1770638;78;21066;-82
2022/09/12 07:01:27;;;;;;;3.75;2.00;;;;;;;16.45;79.51;98741.48;1768554;80;20973;-79
2022/09/12 07:03:59;;;;;;;5.97;2.40;;;;;;;16.50;79.23;98751.23;1763008;80;21034;-82
2022/09/12 07:06:34;;;;;;;5.33;2.42;;;;;;;16.54;79.04;98753.23;1755098;80;20977;-82
2022/09/12 07:09:01;;;;;;;6.97;2.42;;;;;;;16.55;78.56;98754.91;1757333;80;21481;-80
2022/09/12 07:11:32;;;;;;;6.78;2.20;;;;;;;16.48;78.52;98758.34;1763110;80;21033;-81
2022/09/12 07:14:02;;;;;;;6.25;2.35;;;;;;;16.48;78.60;98760.13;1769754;80;20940;-81
2022/09/12 07:16:29;;;;;;;5.47;2.22;;;;;;;16.48;78.75;98762.28;1758802;80;20994;-82
2022/09/12 07:19:01;;;;;;;6.33;2.50;;;;;;;16.47;78.62;98771.55;1832497;77;20977;-83
2022/09/12 07:21:29;;;;;;;5.47;2.08;;;;;;;16.44;78.71;98767.31;1830486;77;21014;-81
2022/09/12 07:23:59;;;;;;;8.33;4.47;;;;;;;16.39;79.26;98765.39;1816180;77;20951;-82
2022/09/12 07:26:28;;;;;;;10.30;5.92;;;;;;;16.35;78.77;98766.96;1798856;77;21041;-82
2022/09/12 07:28:58;;;;;;;14.55;6.30;;;;;;;16.26;80.60;98774.41;1820089;77;21449;-81
2022/09/12 07:31:27;;;;;;;9.50;4.25;;;;;;;16.30;80.63;98780.34;1815808;77;20975;-82
2022/09/12 07:33:53;;;;;;;10.85;4.95;;;;;;;16.30;80.87;98778.55;1838985;77;21079;-80
2022/09/12 07:36:24;;;;;;;10.05;5.15;;;;;;;16.30;81.45;98777.24;1830784;77;20966;-81
2022/09/12 07:38:56;;;;;;;6.90;3.33;;;;;;;16.30;81.19;98780.34;1763509;80;21012;-81
2022/09/12 07:41:29;;;;;;;5.97;2.75;;;;;;;16.23;81.63;98780.27;1764629;80;21000;-81
2022/09/12 07:43:59;;;;;;;4.45;2.62;;;;;;;16.20;81.87;98784.38;1757308;81;20999;-80
2022/09/12 07:46:31;;;;;;;5.83;2.40;;;;;;;16.30;82.36;98786.42;1723108;80;21083;-82
2022/09/12 07:49:01;;;;;;;7.85;2.87;;;;;;;16.36;83.00;98786.56;1740445;81;21004;-80
2022/09/12 07:51:29;;;;;;;7.95;2.50;;;;;;;16.39;82.64;98787.69;1767151;81;20993;-82
2022/09/12 07:53:57;;;;;;;6.22;2.58;;;;;;;16.45;83.47;98791.77;1724317;83;20955;-82
2022/09/12 07:56:25;;;;;;;10.28;3.27;;;;;;;16.54;83.65;98793.91;1761455;80;21011;-83
2022/09/12 07:58:55;;;;;;;7.05;2.70;;;;;;;16.53;82.67;98793.51;1755236;80;20948;-82
2022/09/12 08:01:25;;;;;;;8.75;2.45;;;;;;;16.47;82.12;98789.47;1803949;77;21028;-81
2022/09/12 08:03:58;;;;;;;5.62;2.42;;;;;;;16.45;83.08;98794.39;1805850;77;21029;-84
2022/09/12 08:06:29;;;;;;;4.72;2.58;;;;;;;16.47;82.48;98785.53;1761704;81;21009;-83
2022/09/12 08:08:58;;;;;;;6.17;2.40;;;;;;;16.55;82.98;98796.89;1765265;81;20969;-83
2022/09/12 08:11:27;;;;;;;4.30;2.20;;;;;;;16.61;83.14;98790.47;1742213;81;21514;-83
2022/09/12 08:13:55;;;;;;;4.03;2.40;;;;;;;16.65;83.10;98796.80;1761370;81;20980;-84
2022/09/12 08:16:29;;;;;;;8.70;3.05;;;;;;;16.69;82.17;98797.45;1746104;81;21003;-81
2022/09/12 08:18:57;;;;;;;6.75;2.50;;;;;;;16.65;81.55;98798.11;1744531;81;20944;-82
2022/09/12 08:21:28;;;;;;;8.38;2.52;;;;;;;16.58;81.66;98786.25;1748769;81;21016;-81
2022/09/12 08:24:03;;;;;;;7.15;2.62;;;;;;;16.58;82.94;98780.16;1769753;80;20951;-81
2022/09/12 08:26:28;;;;;;;7.47;3.45;;;;;;;16.66;82.21;98787.98;1724282;82;21572;-81
2022/09/12 08:28:55;;;;;;;6.08;2.62;;;;;;;16.67;82.32;98786.20;1758275;80;21012;-80
2022/09/12 08:31:24;;;;;;;10.53;4.45;;;;;;;16.76;82.07;98780.45;1810062;77;21095;-80
2022/09/12 08:33:54;;;;;;;10.55;6.17;;;;;;;16.83;82.64;98775.28;1809298;77;20966;-83
2022/09/12 08:36:25;;;;;;;11.00;3.42;;;;;;;16.99;82.12;98775.71;1813522;77;20967;-81
2022/09/12 08:38:59;;;;;;;6.40;2.87;;;;;;;17.17;81.38;98772.06;1793184;78;21077;-80
2022/09/12 08:41:34;;;;;;;6.62;2.40;;;;;;;17.33;81.15;98768.08;1755987;81;21045;-81
2022/09/12 08:44:19;;;;;;;6.80;3.00;;;;;;;17.57;81.54;98768.91;1742108;82;21556;-80
2022/09/12 08:47:11;;;;;;;6.40;2.80;;;;;;;17.73;81.30;98763.59;1741959;82;21001;-81
2022/09/12 08:50:09;;;;;;;4.45;2.80;;;;;;;17.89;80.00;98766.53;1748071;82;21001;-81
2022/09/12 08:52:50;;;;;;;7.15;2.90;;;;;;;18.13;80.88;98769.09;1745776;82;21012;-82
2022/09/12 08:55:34;;;;;;;6.62;3.00;;;;;;;18.19;79.91;98759.50;1716944;82;21489;-81
2022/09/12 08:58:12;;;;;;;6.00;3.00;;;;;;;18.28;78.71;98770.75;1736939;82;21060;-82
2022/09/12 09:01:08;;;;;;;11.33;2.80;;;;;;;18.40;78.80;98763.89;1746800;82;20981;-84
2022/09/12 09:04:11;;;;;;;7.12;3.12;;;;;;;18.44;77.97;98763.63;1740399;81;21490;-83
2022/09/12 09:07:06;;;;;;;4.20;2.55;;;;;;;18.33;76.40;98762.12;1739123;81;21055;-82
2022/09/12 09:09:49;;;;;;;4.30;2.72;;;;;;;18.38;76.67;98756.56;1735960;81;21041;-81
2022/09/12 09:12:25;;;;;;;;;;;;;;;18.46;76.47;98764.81;1729294;82;21043;-82
2022/09/12 09:15:42;;;;;;;5.80;3.08;;;;;;;18.58;76.36;98762.75;1736847;81;20140;-82
2022/09/12 09:18:23;;;;;;;6.12;2.80;;;;;;;18.65;76.67;98761.88;1740845;81;21472;-81
2022/09/12 09:20:57;;;;;;;8.45;2.40;;;;;;;18.71;75.82;98768.07;1748897;81;21026;-81
2022/09/12 09:23:35;;;;;;;4.15;2.30;;;;;;;18.77;75.80;98753.19;1745326;81;21012;-81
2022/09/12 09:26:15;;;;;;;10.63;2.90;;;;;;;18.85;75.46;98755.37;1749458;81;21087;-82
2022/09/12 09:28:46;;;;;;;5.12;1.82;;;;;;;18.91;74.96;98756.77;1749363;81;21015;-81
2022/09/12 09:31:20;;;;;;;5.83;2.00;;;;;;;18.97;73.46;98764.27;1744366;81;21032;-81
2022/09/12 09:33:56;;;;;;;5.87;1.90;;;;;;;19.12;75.09;98765.91;1741108;81;21023;-81
2022/09/12 09:36:52;;;;;;;2.95;1.80;;;;;;;19.24;74.22;98755.04;1765888;80;21014;-81
2022/09/12 09:39:24;;;;;;;6.30;2.08;;;;;;;19.21;70.10;98760.02;1790335;79;20999;-82
2022/09/12 09:42:11;;;;;;;16.70;5.00;;;;;;;19.27;72.37;98759.61;1796364;80;21050;-86
2022/09/12 09:44:38;;;;;;;7.08;3.45;;;;;;;19.31;72.22;98755.47;1776444;80;21004;-86
2022/09/12 09:47:05;;;;;;;8.88;4.67;;;;;;;19.40;72.36;98754.86;1844777;77;20975;-84
2022/09/12 09:49:35;;;;;;;10.43;2.90;;;;;;;19.52;72.42;98757.99;1842663;77;21021;-85
2022/09/12 09:52:05;;;;;;;11.28;1.85;;;;;;;19.62;72.16;98755.09;1831024;77;21042;-78
2022/09/12 09:54:49;;;;;;;3.52;2.10;;;;;;;19.61;71.56;98756.03;1852929;77;20962;-78
2022/09/12 09:57:38;;;;;;;5.70;2.10;;;;;;;19.49;70.39;98750.27;1823443;77;20978;-80
2022/09/12 10:00:35;;;;;;;6.90;2.35;;;;;;;19.47;70.71;98742.46;1785201;77;21001;-80
2022/09/12 10:03:14;;;;;;;9.53;2.65;;;;;;;19.45;70.61;98739.56;1840295;77;20936;-80
2022/09/12 10:05:49;;;;;;;4.78;2.30;;;;;;;19.47;70.56;98735.87;1824722;77;21131;-80
2022/09/12 10:08:31;;;;;;;5.45;2.27;;;;;;;19.50;70.56;98722.98;1833032;77;21440;-80
2022/09/12 10:11:16;;;;;;;12.78;2.72;;;;;;;19.51;70.17;98729.92;1855146;77;20945;-82
2022/09/12 10:13:56;;;;;;;12.75;2.00;;;;;;;19.58;70.44;98721.14;1826091;77;21467;-80
2022/09/12 10:16:29;;;;;;;5.65;1.95;;;;;;;19.67;70.12;98721.33;1838032;77;21048;-80
2022/09/12 10:19:01;;;;;;;6.47;2.20;;;;;;;19.75;70.19;98716.05;1837592;77;21006;-78
2022/09/12 10:21:42;;;;;;;5.90;1.60;;;;;;;19.83;69.82;98725.59;1837019;77;21064;-80
2022/09/12 10:24:36;;;;;;;3.00;1.60;;;;;;;20.00;68.51;98716.04;1805823;79;20976;-80
2022/09/12 10:27:16;;;;;;;2.83;1.60;;;;;;;20.32;68.71;98714.24;1769592;80;21500;-81
2022/09/12 10:29:53;;;;;;;3.40;1.37;;;;;;;20.56;65.34;98714.76;1784741;80;21006;-79
2022/09/12 10:32:37;;;;;;;5.47;2.00;;;;;;;20.77;63.68;98700.03;1775168;80;21033;-81
2022/09/12 10:35:29;;;;;;;2.20;1.32;;;;;;;21.01;65.35;98686.80;1764929;80;20974;-80
2022/09/12 10:38:05;;;;;;;2.37;1.47;;;;;;;21.19;62.58;98703.56;1778436;80;21029;-78
2022/09/12 10:40:39;;;;;;;3.15;1.42;;;;;;;21.13;61.55;98698.70;1768437;79;21064;-78
2022/09/12 10:43:32;;;;;;;2.17;1.20;;;;;;;21.04;59.87;98701.57;1786006;80;21510;-79
2022/09/12 10:46:22;;;;;;;5.72;1.30;;;;;;;20.97;57.89;98710.90;1780780;79;20994;-79
2022/09/12 10:48:52;;;;;;;3.65;1.17;;;;;;;20.89;59.80;98713.27;1783664;80;20963;-78
2022/09/12 10:51:27;;;;;;;5.22;1.85;;;;;;;20.66;60.67;98727.69;1768378;80;21537;-81
2022/09/12 10:53:58;;;;;;;3.87;1.45;;;;;;;20.46;60.91;98732.58;1789636;79;20990;-78
2022/09/12 10:56:32;;;;;;;3.47;1.60;;;;;;;20.15;62.10;98721.19;1799964;79;20943;-79
2022/09/12 10:59:44;;;;;;;3.50;2.02;;;;;;;19.90;63.04;98721.59;1772434;80;20954;-79
2022/09/12 11:02:28;;;;;;;4.33;2.52;;;;;;;19.79;64.20;98715.72;1761669;80;21478;-80
2022/09/12 11:05:19;;;;;;;8.08;4.05;;;;;;;19.76;65.25;98714.63;1781440;80;20987;-77
2022/09/12 11:07:54;;;;;;;6.58;2.35;;;;;;;19.86;66.95;98722.27;1750544;80;21059;-80
2022/09/12 11:10:50;;;;;;;2.95;1.90;;;;;;;19.90;68.32;98718.13;1811245;79;21023;-79
2022/09/12 11:13:22;;;;;;;2.85;1.67;;;;;;;19.86;69.86;98716.16;1786465;80;21017;-79
2022/09/12 11:16:15;;;;;;;3.52;1.62;;;;;;;19.95;67.63;98719.45;1778468;79;21053;-79
2022/09/12 11:19:19;;;;;;;2.58;1.27;;;;;;;20.11;66.95;98721.03;1783039;79;21018;-79
2022/09/12 11:22:06;;;;;;;3.10;1.40;;;;;;;20.33;63.17;98727.80;1721419;82;20998;-81
2022/09/12 11:25:29;;;;;;;2.85;1.60;;;;;;;20.72;66.01;98716.67;1783897;79;31436;-78
2022/09/12 11:28:21;;;;;;;3.10;1.40;;;;;;;21.15;64.70;98716.16;1778637;79;21001;-79
2022/09/12 11:31:05;;;;;;;2.47;1.35;;;;;;;21.77;63.72;98713.69;1791521;79;21562;-78
2022/09/12 11:33:43;;;;;;;2.10;1.30;;;;;;;22.27;62.74;98716.50;1788247;79;21014;-78
2022/09/12 11:36:47;;;;;;;3.98;1.60;;;;;;;22.68;61.99;98718.48;1797214;79;21030;-78
2022/09/12 11:39:21;;;;;;;2.87;1.57;;;;;;;23.02;54.87;98732.98;1783803;79;20976;-78
2022/09/12 11:41:55;;;;;;;4.75;1.40;;;;;;;23.12;57.89;98721.09;1779111;79;21541;-78
2022/09/12 11:44:42;;;;;;;2.58;1.40;;;;;;;23.12;58.41;98721.97;1779837;79;21011;-78
2022/09/12 11:47:12;;;;;;;3.45;1.70;;;;;;;23.01;57.04;98720.64;1782732;79;21451;-79
2022/09/12 11:49:54;;;;;;;3.22;1.52;;;;;;;23.21;57.85;98723.83;1775848;79;20960;-78
2022/09/12 11:52:28;;;;;;;4.33;2.05;;;;;;;23.35;58.15;98717.38;1780091;79;21072;-79
2022/09/12 11:55:09;;;;;;;9.08;1.52;;;;;;;23.77;58.90;98719.17;1783291;79;20955;-78
2022/09/12 11:57:55;;;;;;;1.85;1.27;;;;;;;24.24;58.56;98720.06;1780401;79;20983;-78
2022/09/12 12:00:36;;;;;;;4.10;1.35;;;;;;;24.29;54.91;98716.03;1780796;79;21007;-79
2022/09/12 12:03:27;;;;;;;2.85;1.40;;;;;;;24.27;51.37;98721.93;1782412;79;20987;-78
2022/09/12 12:06:08;;;;;;;7.70;1.67;;;;;;;24.45;54.42;98720.80;1774378;80;21114;-77
2022/09/12 12:08:39;;;;;;;3.62;1.60;;;;;;;24.35;50.99;98720.80;1783879;79;21093;-78
2022/09/12 12:11:08;;;;;;;4.60;1.85;;;;;;;24.11;49.67;98716.29;1785076;79;20968;-77